Crane Island Airstrip

METAR KFHR TAF CYYJ
9 °C
°C
-
°C
26m
Idade
20:19:04
LT
19:19
UTC
0 ft

1.000

2.000

3.000

4.000

5.000

OVC 1.700
MVFR
<?= Yii::t('app', 'Wind direction') ?> <?= Yii::t('app', 'of'); ?>
130°
17:15
Pôr-do-sol
82%
Humidade
Tesoura de Vento
Fechado/Neve
Alcance visual RWY
Condição RWY
Vert. visibilidade
Min. visibilidade
CAVOK
Tendência
Correcção
Relatório especial
29,97 inHg
QNH
METAR KFHR 041853Z AUTO 13013G20KT 10SM OVC017 09/06 A2997 RMK AO2 SLP150 T00940056
Nublado
0 kt
0 kt
11:00
MVFR
8 kt
12:00
MVFR
8 kt
13:00
MVFR
10 kt
14:00
MVFR
10 kt
15:00
MVFR
10 kt
16:00
MVFR
10 kt
17:00
MVFR
10 kt
10 mi
Visibilidade
1.700 ft
Tecto
13-20 kt
Vento
metar-taf.com/CKR

Metar-Taf.com

Decodificador visual

Nós e terceiros acompanhamos seu comportamento na internet em nosso site com cookies. Se você continuar, nós assumimos que você concorda com nosso política de cookies.